sensor_id;sensor_type;location;lat;lon;timestamp;temperature;humidity
32787;DHT22;19139;49.372;8.580;2023-12-20T00:01:57;18.30;91.30
32787;DHT22;19139;49.372;8.580;2023-12-20T00:04:24;18.30;91.30
32787;DHT22;19139;49.372;8.580;2023-12-20T00:06:50;18.30;91.30
32787;DHT22;19139;49.372;8.580;2023-12-20T00:09:18;18.30;91.30
32787;DHT22;19139;49.372;8.580;2023-12-20T00:11:45;18.30;91.30
32787;DHT22;19139;49.372;8.580;2023-12-20T00:14:12;18.30;91.30
32787;DHT22;19139;49.372;8.580;2023-12-20T00:16:39;18.30;91.20
32787;DHT22;19139;49.372;8.580;2023-12-20T00:19:06;18.30;91.20
32787;DHT22;19139;49.372;8.580;2023-12-20T00:21:33;18.30;91.20
32787;DHT22;19139;49.372;8.580;2023-12-20T00:23:59;18.30;91.20
32787;DHT22;19139;49.372;8.580;2023-12-20T00:26:26;18.20;91.20
32787;DHT22;19139;49.372;8.580;2023-12-20T00:28:54;18.20;91.20
32787;DHT22;19139;49.372;8.580;2023-12-20T00:31:21;18.20;91.20
32787;DHT22;19139;49.372;8.580;2023-12-20T00:33:48;18.20;91.10
32787;DHT22;19139;49.372;8.580;2023-12-20T00:36:14;18.20;91.10
32787;DHT22;19139;49.372;8.580;2023-12-20T00:38:41;18.20;91.10
32787;DHT22;19139;49.372;8.580;2023-12-20T00:41:08;18.20;91.10
32787;DHT22;19139;49.372;8.580;2023-12-20T00:43:34;18.20;91.10
32787;DHT22;19139;49.372;8.580;2023-12-20T00:46:01;18.20;91.10
32787;DHT22;19139;49.372;8.580;2023-12-20T00:48:28;18.20;91.10
32787;DHT22;19139;49.372;8.580;2023-12-20T00:50:57;18.20;91.10
32787;DHT22;19139;49.372;8.580;2023-12-20T00:53:24;18.20;91.00
32787;DHT22;19139;49.372;8.580;2023-12-20T00:55:50;18.20;91.00
32787;DHT22;19139;49.372;8.580;2023-12-20T00:58:17;18.20;91.00
32787;DHT22;19139;49.372;8.580;2023-12-20T01:00:44;18.20;91.00
32787;DHT22;19139;49.372;8.580;2023-12-20T01:03:11;18.20;91.00
32787;DHT22;19139;49.372;8.580;2023-12-20T01:05:37;18.20;91.30
32787;DHT22;19139;49.372;8.580;2023-12-20T01:08:04;18.20;91.00
32787;DHT22;19139;49.372;8.580;2023-12-20T01:10:31;18.20;91.00
32787;DHT22;19139;49.372;8.580;2023-12-20T01:12:58;18.20;91.00
32787;DHT22;19139;49.372;8.580;2023-12-20T01:15:25;18.20;91.00
32787;DHT22;19139;49.372;8.580;2023-12-20T01:17:51;18.20;91.00
32787;DHT22;19139;49.372;8.580;2023-12-20T01:20:18;18.20;91.00
32787;DHT22;19139;49.372;8.580;2023-12-20T01:22:46;18.20;91.00
32787;DHT22;19139;49.372;8.580;2023-12-20T01:25:13;18.20;91.00
32787;DHT22;19139;49.372;8.580;2023-12-20T01:27:40;18.20;90.90
32787;DHT22;19139;49.372;8.580;2023-12-20T01:30:07;18.20;90.90
32787;DHT22;19139;49.372;8.580;2023-12-20T01:32:34;18.20;90.90
32787;DHT22;19139;49.372;8.580;2023-12-20T01:35:00;18.20;90.90
32787;DHT22;19139;49.372;8.580;2023-12-20T01:37:29;18.20;90.90
32787;DHT22;19139;49.372;8.580;2023-12-20T01:39:56;18.20;90.90
32787;DHT22;19139;49.372;8.580;2023-12-20T01:42:22;18.20;90.90
32787;DHT22;19139;49.372;8.580;2023-12-20T01:44:50;18.20;90.90
32787;DHT22;19139;49.372;8.580;2023-12-20T01:47:16;18.20;90.90
32787;DHT22;19139;49.372;8.580;2023-12-20T01:49:43;18.20;90.90
32787;DHT22;19139;49.372;8.580;2023-12-20T01:52:10;18.20;90.90
32787;DHT22;19139;49.372;8.580;2023-12-20T01:54:39;18.20;90.90
32787;DHT22;19139;49.372;8.580;2023-12-20T01:57:07;18.20;90.80
32787;DHT22;19139;49.372;8.580;2023-12-20T01:59:34;18.20;90.80
32787;DHT22;19139;49.372;8.580;2023-12-20T02:02:03;18.20;90.80
32787;DHT22;19139;49.372;8.580;2023-12-20T02:04:30;18.20;90.80
32787;DHT22;19139;49.372;8.580;2023-12-20T02:06:57;18.20;90.80
32787;DHT22;19139;49.372;8.580;2023-12-20T02:09:25;18.20;90.80
32787;DHT22;19139;49.372;8.580;2023-12-20T02:11:53;18.20;90.80
32787;DHT22;19139;49.372;8.580;2023-12-20T02:14:20;18.20;90.80
32787;DHT22;19139;49.372;8.580;2023-12-20T02:16:47;18.20;90.80
32787;DHT22;19139;49.372;8.580;2023-12-20T02:19:14;18.20;90.80
32787;DHT22;19139;49.372;8.580;2023-12-20T02:21:42;18.20;90.80
32787;DHT22;19139;49.372;8.580;2023-12-20T02:24:09;18.20;90.80
32787;DHT22;19139;49.372;8.580;2023-12-20T02:26:35;18.20;90.80
32787;DHT22;19139;49.372;8.580;2023-12-20T02:29:02;18.20;90.80
32787;DHT22;19139;49.372;8.580;2023-12-20T02:31:29;18.20;90.80
32787;DHT22;19139;49.372;8.580;2023-12-20T02:33:56;18.20;90.70
32787;DHT22;19139;49.372;8.580;2023-12-20T02:36:23;18.20;90.80
32787;DHT22;19139;49.372;8.580;2023-12-20T02:38:49;18.20;90.70
32787;DHT22;19139;49.372;8.580;2023-12-20T02:41:17;18.20;90.80
32787;DHT22;19139;49.372;8.580;2023-12-20T02:43:45;18.20;90.70
32787;DHT22;19139;49.372;8.580;2023-12-20T02:46:12;18.20;90.70
32787;DHT22;19139;49.372;8.580;2023-12-20T02:48:40;18.20;90.70
32787;DHT22;19139;49.372;8.580;2023-12-20T02:51:07;18.20;90.70
32787;DHT22;19139;49.372;8.580;2023-12-20T02:53:33;18.20;90.70
32787;DHT22;19139;49.372;8.580;2023-12-20T02:56:00;18.20;90.70
32787;DHT22;19139;49.372;8.580;2023-12-20T02:58:27;18.20;90.70
32787;DHT22;19139;49.372;8.580;2023-12-20T03:00:53;18.20;90.70
32787;DHT22;19139;49.372;8.580;2023-12-20T03:03:20;18.10;90.70
32787;DHT22;19139;49.372;8.580;2023-12-20T03:05:47;18.20;90.70
32787;DHT22;19139;49.372;8.580;2023-12-20T03:08:14;18.10;90.70
32787;DHT22;19139;49.372;8.580;2023-12-20T03:10:41;18.10;90.70
32787;DHT22;19139;49.372;8.580;2023-12-20T03:13:07;18.20;90.70
32787;DHT22;19139;49.372;8.580;2023-12-20T03:15:34;18.20;90.70
32787;DHT22;19139;49.372;8.580;2023-12-20T03:18:01;18.10;90.70
32787;DHT22;19139;49.372;8.580;2023-12-20T03:20:28;18.10;90.70
32787;DHT22;19139;49.372;8.580;2023-12-20T03:22:57;18.20;90.70
32787;DHT22;19139;49.372;8.580;2023-12-20T03:25:24;18.10;90.70
32787;DHT22;19139;49.372;8.580;2023-12-20T03:27:50;18.10;90.60
32787;DHT22;19139;49.372;8.580;2023-12-20T03:30:17;18.10;90.70
32787;DHT22;19139;49.372;8.580;2023-12-20T03:32:44;18.10;90.70
32787;DHT22;19139;49.372;8.580;2023-12-20T03:35:11;18.10;90.60
32787;DHT22;19139;49.372;8.580;2023-12-20T03:37:37;18.10;90.60
32787;DHT22;19139;49.372;8.580;2023-12-20T03:40:04;18.10;90.60
32787;DHT22;19139;49.372;8.580;2023-12-20T03:42:31;18.10;90.60
32787;DHT22;19139;49.372;8.580;2023-12-20T03:44:58;18.10;90.60
32787;DHT22;19139;49.372;8.580;2023-12-20T03:47:24;18.10;90.60
32787;DHT22;19139;49.372;8.580;2023-12-20T03:49:51;18.10;90.60
32787;DHT22;19139;49.372;8.580;2023-12-20T03:52:18;18.10;90.70
32787;DHT22;19139;49.372;8.580;2023-12-20T03:54:44;18.10;90.70
32787;DHT22;19139;49.372;8.580;2023-12-20T03:57:11;18.20;90.70
32787;DHT22;19139;49.372;8.580;2023-12-20T03:59:38;18.10;90.60
32787;DHT22;19139;49.372;8.580;2023-12-20T04:02:05;18.10;90.60
32787;DHT22;19139;49.372;8.580;2023-12-20T04:04:31;18.10;90.60
32787;DHT22;19139;49.372;8.580;2023-12-20T04:06:58;18.10;90.60
32787;DHT22;19139;49.372;8.580;2023-12-20T04:09:25;18.10;90.60
32787;DHT22;19139;49.372;8.580;2023-12-20T04:11:52;18.10;90.60
32787;DHT22;19139;49.372;8.580;2023-12-20T04:14:18;18.10;90.60
32787;DHT22;19139;49.372;8.580;2023-12-20T04:16:45;18.10;90.60
32787;DHT22;19139;49.372;8.580;2023-12-20T04:19:13;18.10;90.60
32787;DHT22;19139;49.372;8.580;2023-12-20T04:21:40;18.10;90.60
32787;DHT22;19139;49.372;8.580;2023-12-20T04:24:07;18.10;90.60
32787;DHT22;19139;49.372;8.580;2023-12-20T04:26:33;18.10;90.60
32787;DHT22;19139;49.372;8.580;2023-12-20T04:29:00;18.10;90.60
32787;DHT22;19139;49.372;8.580;2023-12-20T04:31:26;18.10;90.60
32787;DHT22;19139;49.372;8.580;2023-12-20T04:33:53;18.10;90.60
32787;DHT22;19139;49.372;8.580;2023-12-20T04:36:20;18.10;90.60
32787;DHT22;19139;49.372;8.580;2023-12-20T04:38:47;18.10;90.60
32787;DHT22;19139;49.372;8.580;2023-12-20T04:41:13;18.10;90.60
32787;DHT22;19139;49.372;8.580;2023-12-20T04:43:45;18.10;90.60
32787;DHT22;19139;49.372;8.580;2023-12-20T04:46:11;18.10;90.60
32787;DHT22;19139;49.372;8.580;2023-12-20T04:48:38;18.10;90.60
32787;DHT22;19139;49.372;8.580;2023-12-20T04:51:05;18.10;90.60
32787;DHT22;19139;49.372;8.580;2023-12-20T04:53:32;18.10;90.60
32787;DHT22;19139;49.372;8.580;2023-12-20T04:55:59;18.10;90.60
32787;DHT22;19139;49.372;8.580;2023-12-20T04:58:26;18.10;90.60
32787;DHT22;19139;49.372;8.580;2023-12-20T05:00:52;18.10;90.50
32787;DHT22;19139;49.372;8.580;2023-12-20T05:03:19;18.10;90.60
32787;DHT22;19139;49.372;8.580;2023-12-20T05:05:46;18.10;90.60
32787;DHT22;19139;49.372;8.580;2023-12-20T05:08:12;18.10;90.60
32787;DHT22;19139;49.372;8.580;2023-12-20T05:10:39;18.10;90.60
32787;DHT22;19139;49.372;8.580;2023-12-20T05:13:06;18.10;90.50
32787;DHT22;19139;49.372;8.580;2023-12-20T05:15:34;18.10;90.50
32787;DHT22;19139;49.372;8.580;2023-12-20T05:18:01;18.10;90.50
32787;DHT22;19139;49.372;8.580;2023-12-20T05:20:27;18.10;90.50
32787;DHT22;19139;49.372;8.580;2023-12-20T05:22:54;18.10;90.50
32787;DHT22;19139;49.372;8.580;2023-12-20T05:25:21;18.10;90.50
32787;DHT22;19139;49.372;8.580;2023-12-20T05:27:48;18.10;90.70
32787;DHT22;19139;49.372;8.580;2023-12-20T05:30:15;18.10;90.80
32787;DHT22;19139;49.372;8.580;2023-12-20T05:32:42;18.10;90.80
32787;DHT22;19139;49.372;8.580;2023-12-20T05:35:08;18.10;90.80
32787;DHT22;19139;49.372;8.580;2023-12-20T05:37:35;18.10;90.80
32787;DHT22;19139;49.372;8.580;2023-12-20T05:40:02;18.10;91.20
32787;DHT22;19139;49.372;8.580;2023-12-20T05:42:29;18.10;90.90
32787;DHT22;19139;49.372;8.580;2023-12-20T05:44:55;18.10;90.80
32787;DHT22;19139;49.372;8.580;2023-12-20T05:47:24;18.10;90.80
32787;DHT22;19139;49.372;8.580;2023-12-20T05:49:51;18.10;90.80
32787;DHT22;19139;49.372;8.580;2023-12-20T05:52:18;18.10;90.80
32787;DHT22;19139;49.372;8.580;2023-12-20T05:54:45;18.10;90.80
32787;DHT22;19139;49.372;8.580;2023-12-20T05:57:11;18.10;90.80
32787;DHT22;19139;49.372;8.580;2023-12-20T05:59:38;18.10;90.80
32787;DHT22;19139;49.372;8.580;2023-12-20T06:02:04;18.10;90.80
32787;DHT22;19139;49.372;8.580;2023-12-20T06:04:32;18.10;90.80
32787;DHT22;19139;49.372;8.580;2023-12-20T06:06:59;18.10;90.80
32787;DHT22;19139;49.372;8.580;2023-12-20T06:09:29;18.10;91.10
32787;DHT22;19139;49.372;8.580;2023-12-20T06:11:57;18.10;90.80
32787;DHT22;19139;49.372;8.580;2023-12-20T06:14:24;18.10;90.80
32787;DHT22;19139;49.372;8.580;2023-12-20T06:16:51;18.10;90.80
32787;DHT22;19139;49.372;8.580;2023-12-20T06:19:17;18.10;90.80
32787;DHT22;19139;49.372;8.580;2023-12-20T06:21:44;18.10;90.80
32787;DHT22;19139;49.372;8.580;2023-12-20T06:24:11;18.10;90.80
32787;DHT22;19139;49.372;8.580;2023-12-20T06:26:38;18.10;90.80
32787;DHT22;19139;49.372;8.580;2023-12-20T06:29:05;18.10;90.80
32787;DHT22;19139;49.372;8.580;2023-12-20T06:31:32;18.10;90.80
32787;DHT22;19139;49.372;8.580;2023-12-20T06:33:59;18.10;90.70
32787;DHT22;19139;49.372;8.580;2023-12-20T06:36:26;18.10;90.70
32787;DHT22;19139;49.372;8.580;2023-12-20T06:38:53;18.10;90.80
32787;DHT22;19139;49.372;8.580;2023-12-20T06:41:20;18.10;90.70
32787;DHT22;19139;49.372;8.580;2023-12-20T06:43:47;18.10;90.70
32787;DHT22;19139;49.372;8.580;2023-12-20T06:46:16;18.10;90.70
32787;DHT22;19139;49.372;8.580;2023-12-20T06:48:43;18.10;90.70
32787;DHT22;19139;49.372;8.580;2023-12-20T06:51:16;18.10;90.70
32787;DHT22;19139;49.372;8.580;2023-12-20T06:53:44;18.10;90.70
32787;DHT22;19139;49.372;8.580;2023-12-20T06:56:11;18.10;90.70
32787;DHT22;19139;49.372;8.580;2023-12-20T06:58:43;18.10;90.70
32787;DHT22;19139;49.372;8.580;2023-12-20T07:01:14;18.10;90.70
32787;DHT22;19139;49.372;8.580;2023-12-20T07:03:41;18.10;90.70
32787;DHT22;19139;49.372;8.580;2023-12-20T07:06:08;18.10;90.70
32787;DHT22;19139;49.372;8.580;2023-12-20T07:08:35;18.10;90.70
32787;DHT22;19139;49.372;8.580;2023-12-20T07:11:02;18.10;90.70
32787;DHT22;19139;49.372;8.580;2023-12-20T07:13:29;18.10;90.70
32787;DHT22;19139;49.372;8.580;2023-12-20T07:15:56;18.10;90.70
32787;DHT22;19139;49.372;8.580;2023-12-20T07:18:23;18.10;90.90
32787;DHT22;19139;49.372;8.580;2023-12-20T07:20:49;18.10;91.20
32787;DHT22;19139;49.372;8.580;2023-12-20T07:23:16;18.10;91.30
32787;DHT22;19139;49.372;8.580;2023-12-20T07:25:43;18.10;91.30
32787;DHT22;19139;49.372;8.580;2023-12-20T07:28:09;18.10;91.30
32787;DHT22;19139;49.372;8.580;2023-12-20T07:30:37;18.10;91.20
32787;DHT22;19139;49.372;8.580;2023-12-20T07:33:04;18.10;91.20
32787;DHT22;19139;49.372;8.580;2023-12-20T07:35:31;18.10;91.10
32787;DHT22;19139;49.372;8.580;2023-12-20T07:37:58;18.10;91.10
32787;DHT22;19139;49.372;8.580;2023-12-20T07:40:25;18.10;91.10
32787;DHT22;19139;49.372;8.580;2023-12-20T07:42:51;18.10;91.10
32787;DHT22;19139;49.372;8.580;2023-12-20T07:45:18;18.10;91.00
32787;DHT22;19139;49.372;8.580;2023-12-20T07:47:45;18.10;91.00
32787;DHT22;19139;49.372;8.580;2023-12-20T07:50:12;18.10;91.00
32787;DHT22;19139;49.372;8.580;2023-12-20T07:52:39;18.10;91.00
32787;DHT22;19139;49.372;8.580;2023-12-20T07:55:06;18.10;91.00
32787;DHT22;19139;49.372;8.580;2023-12-20T07:57:33;18.10;91.00
32787;DHT22;19139;49.372;8.580;2023-12-20T07:59:59;18.10;91.00
32787;DHT22;19139;49.372;8.580;2023-12-20T08:02:26;18.10;91.00
32787;DHT22;19139;49.372;8.580;2023-12-20T08:04:53;18.10;91.00
32787;DHT22;19139;49.372;8.580;2023-12-20T08:07:19;18.10;91.00
32787;DHT22;19139;49.372;8.580;2023-12-20T08:09:46;18.10;91.00
32787;DHT22;19139;49.372;8.580;2023-12-20T08:12:13;18.10;90.90
32787;DHT22;19139;49.372;8.580;2023-12-20T08:14:39;18.10;90.90
32787;DHT22;19139;49.372;8.580;2023-12-20T08:17:06;18.10;90.90
32787;DHT22;19139;49.372;8.580;2023-12-20T08:19:33;18.10;90.90
32787;DHT22;19139;49.372;8.580;2023-12-20T08:22:00;18.10;90.90
32787;DHT22;19139;49.372;8.580;2023-12-20T08:24:26;18.10;90.90
32787;DHT22;19139;49.372;8.580;2023-12-20T08:26:53;18.10;90.90
32787;DHT22;19139;49.372;8.580;2023-12-20T08:29:20;18.10;90.90
32787;DHT22;19139;49.372;8.580;2023-12-20T08:31:52;18.10;90.90
32787;DHT22;19139;49.372;8.580;2023-12-20T08:34:19;18.10;90.90
32787;DHT22;19139;49.372;8.580;2023-12-20T08:36:46;18.10;90.90
32787;DHT22;19139;49.372;8.580;2023-12-20T08:39:12;18.10;90.90
32787;DHT22;19139;49.372;8.580;2023-12-20T08:41:39;18.10;90.90
32787;DHT22;19139;49.372;8.580;2023-12-20T08:44:06;18.10;90.90
32787;DHT22;19139;49.372;8.580;2023-12-20T08:46:33;18.10;90.90
32787;DHT22;19139;49.372;8.580;2023-12-20T08:48:59;18.10;90.90
32787;DHT22;19139;49.372;8.580;2023-12-20T08:51:27;18.10;90.90
32787;DHT22;19139;49.372;8.580;2023-12-20T08:54:00;18.10;90.90
32787;DHT22;19139;49.372;8.580;2023-12-20T08:56:27;18.10;90.90
32787;DHT22;19139;49.372;8.580;2023-12-20T08:58:54;18.10;90.90
32787;DHT22;19139;49.372;8.580;2023-12-20T09:01:21;18.10;90.90
32787;DHT22;19139;49.372;8.580;2023-12-20T09:03:48;18.10;90.90
32787;DHT22;19139;49.372;8.580;2023-12-20T09:06:15;18.10;90.90
32787;DHT22;19139;49.372;8.580;2023-12-20T09:08:42;18.10;90.90
32787;DHT22;19139;49.372;8.580;2023-12-20T09:11:08;18.10;90.80
32787;DHT22;19139;49.372;8.580;2023-12-20T09:13:35;18.10;90.80
32787;DHT22;19139;49.372;8.580;2023-12-20T09:16:03;18.10;90.80
32787;DHT22;19139;49.372;8.580;2023-12-20T09:18:30;18.10;90.80
32787;DHT22;19139;49.372;8.580;2023-12-20T09:20:57;18.10;90.80
32787;DHT22;19139;49.372;8.580;2023-12-20T09:23:23;18.10;90.80
32787;DHT22;19139;49.372;8.580;2023-12-20T09:25:50;18.10;90.80
32787;DHT22;19139;49.372;8.580;2023-12-20T09:28:20;18.10;90.80
32787;DHT22;19139;49.372;8.580;2023-12-20T09:30:47;18.10;90.80
32787;DHT22;19139;49.372;8.580;2023-12-20T09:33:14;18.10;90.80
32787;DHT22;19139;49.372;8.580;2023-12-20T09:35:41;18.10;90.80
32787;DHT22;19139;49.372;8.580;2023-12-20T09:38:08;18.10;90.80
32787;DHT22;19139;49.372;8.580;2023-12-20T09:40:36;18.10;90.80
32787;DHT22;19139;49.372;8.580;2023-12-20T09:43:11;18.10;90.80
32787;DHT22;19139;49.372;8.580;2023-12-20T09:45:40;18.10;90.70
32787;DHT22;19139;49.372;8.580;2023-12-20T09:48:10;18.10;90.70
32787;DHT22;19139;49.372;8.580;2023-12-20T09:50:37;18.10;90.70
32787;DHT22;19139;49.372;8.580;2023-12-20T09:53:05;18.10;90.70
32787;DHT22;19139;49.372;8.580;2023-12-20T09:55:36;18.10;90.70
32787;DHT22;19139;49.372;8.580;2023-12-20T09:58:03;18.10;90.70
32787;DHT22;19139;49.372;8.580;2023-12-20T10:00:30;18.10;90.60
32787;DHT22;19139;49.372;8.580;2023-12-20T10:02:58;18.20;90.70
32787;DHT22;19139;49.372;8.580;2023-12-20T10:05:30;18.20;90.70
32787;DHT22;19139;49.372;8.580;2023-12-20T10:07:58;18.20;90.60
32787;DHT22;19139;49.372;8.580;2023-12-20T10:10:26;18.20;90.60
32787;DHT22;19139;49.372;8.580;2023-12-20T10:13:09;18.20;90.60
32787;DHT22;19139;49.372;8.580;2023-12-20T10:15:37;18.20;90.60
32787;DHT22;19139;49.372;8.580;2023-12-20T10:18:04;18.20;90.60
32787;DHT22;19139;49.372;8.580;2023-12-20T10:20:32;18.20;90.60
32787;DHT22;19139;49.372;8.580;2023-12-20T10:23:00;18.20;90.60
32787;DHT22;19139;49.372;8.580;2023-12-20T10:25:27;18.20;90.60
32787;DHT22;19139;49.372;8.580;2023-12-20T10:28:15;18.20;90.90
32787;DHT22;19139;49.372;8.580;2023-12-20T10:30:45;18.20;90.50
32787;DHT22;19139;49.372;8.580;2023-12-20T10:33:12;18.20;90.50
32787;DHT22;19139;49.372;8.580;2023-12-20T10:35:40;18.20;90.90
32787;DHT22;19139;49.372;8.580;2023-12-20T10:38:12;18.20;90.50
32787;DHT22;19139;49.372;8.580;2023-12-20T10:40:42;18.20;90.50
32787;DHT22;19139;49.372;8.580;2023-12-20T10:43:09;18.20;90.50
32787;DHT22;19139;49.372;8.580;2023-12-20T10:45:37;18.20;90.50
32787;DHT22;19139;49.372;8.580;2023-12-20T10:48:04;18.20;90.50
32787;DHT22;19139;49.372;8.580;2023-12-20T10:50:36;18.20;90.50
32787;DHT22;19139;49.372;8.580;2023-12-20T10:53:05;18.20;90.50
32787;DHT22;19139;49.372;8.580;2023-12-20T10:55:33;18.20;90.50
32787;DHT22;19139;49.372;8.580;2023-12-20T10:58:03;18.20;90.50
32787;DHT22;19139;49.372;8.580;2023-12-20T11:00:35;18.20;90.50
32787;DHT22;19139;49.372;8.580;2023-12-20T11:03:06;18.20;90.50
32787;DHT22;19139;49.372;8.580;2023-12-20T11:05:53;18.20;90.50
32787;DHT22;19139;49.372;8.580;2023-12-20T11:08:32;18.20;90.50
32787;DHT22;19139;49.372;8.580;2023-12-20T11:13:34;18.20;90.50
32787;DHT22;19139;49.372;8.580;2023-12-20T11:16:03;18.20;90.50
32787;DHT22;19139;49.372;8.580;2023-12-20T11:18:30;18.20;90.50
32787;DHT22;19139;49.372;8.580;2023-12-20T11:21:02;18.20;90.50
32787;DHT22;19139;49.372;8.580;2023-12-20T11:23:31;18.20;90.50
32787;DHT22;19139;49.372;8.580;2023-12-20T11:26:01;18.20;90.50
32787;DHT22;19139;49.372;8.580;2023-12-20T11:28:28;18.20;90.50
32787;DHT22;19139;49.372;8.580;2023-12-20T11:31:00;18.10;90.50
32787;DHT22;19139;49.372;8.580;2023-12-20T11:33:37;18.20;90.50
32787;DHT22;19139;49.372;8.580;2023-12-20T11:36:14;18.10;90.50
32787;DHT22;19139;49.372;8.580;2023-12-20T11:38:56;18.20;90.50
32787;DHT22;19139;49.372;8.580;2023-12-20T11:41:24;18.20;90.50
32787;DHT22;19139;49.372;8.580;2023-12-20T11:43:55;18.20;90.50
32787;DHT22;19139;49.372;8.580;2023-12-20T11:46:23;18.10;90.50
32787;DHT22;19139;49.372;8.580;2023-12-20T11:48:50;18.20;90.50
32787;DHT22;19139;49.372;8.580;2023-12-20T11:51:17;18.10;90.50
32787;DHT22;19139;49.372;8.580;2023-12-20T11:53:44;18.20;90.50
32787;DHT22;19139;49.372;8.580;2023-12-20T11:56:11;18.10;90.40
32787;DHT22;19139;49.372;8.580;2023-12-20T11:58:39;18.20;90.50
32787;DHT22;19139;49.372;8.580;2023-12-20T12:01:06;18.20;90.50
32787;DHT22;19139;49.372;8.580;2023-12-20T12:03:35;18.20;90.40
32787;DHT22;19139;49.372;8.580;2023-12-20T12:06:02;18.20;90.40
32787;DHT22;19139;49.372;8.580;2023-12-20T12:08:31;18.20;90.40
32787;DHT22;19139;49.372;8.580;2023-12-20T12:10:58;18.20;90.40
32787;DHT22;19139;49.372;8.580;2023-12-20T12:13:24;18.20;90.40
32787;DHT22;19139;49.372;8.580;2023-12-20T12:15:54;18.20;90.50
32787;DHT22;19139;49.372;8.580;2023-12-20T12:18:21;18.20;90.70
32787;DHT22;19139;49.372;8.580;2023-12-20T12:20:47;18.20;90.70
32787;DHT22;19139;49.372;8.580;2023-12-20T12:23:14;18.20;90.70
32787;DHT22;19139;49.372;8.580;2023-12-20T12:25:48;18.20;90.70
32787;DHT22;19139;49.372;8.580;2023-12-20T12:28:16;18.20;90.60
32787;DHT22;19139;49.372;8.580;2023-12-20T12:30:43;18.20;90.60
32787;DHT22;19139;49.372;8.580;2023-12-20T12:33:19;18.20;90.60
32787;DHT22;19139;49.372;8.580;2023-12-20T12:35:46;18.10;90.60
32787;DHT22;19139;49.372;8.580;2023-12-20T12:38:14;18.10;90.60
32787;DHT22;19139;49.372;8.580;2023-12-20T12:40:43;18.10;90.60
32787;DHT22;19139;49.372;8.580;2023-12-20T12:43:10;18.20;90.60
32787;DHT22;19139;49.372;8.580;2023-12-20T12:45:36;18.10;90.60
32787;DHT22;19139;49.372;8.580;2023-12-20T12:48:04;18.20;90.60
32787;DHT22;19139;49.372;8.580;2023-12-20T12:50:31;18.10;90.50
32787;DHT22;19139;49.372;8.580;2023-12-20T12:52:58;18.10;90.50
32787;DHT22;19139;49.372;8.580;2023-12-20T12:55:24;18.10;90.60
32787;DHT22;19139;49.372;8.580;2023-12-20T12:57:51;18.20;90.60
32787;DHT22;19139;49.372;8.580;2023-12-20T13:00:18;18.10;90.50
32787;DHT22;19139;49.372;8.580;2023-12-20T13:02:46;18.10;90.50
32787;DHT22;19139;49.372;8.580;2023-12-20T13:05:12;18.10;90.50
32787;DHT22;19139;49.372;8.580;2023-12-20T13:07:39;18.10;90.50
32787;DHT22;19139;49.372;8.580;2023-12-20T13:10:06;18.10;90.50
32787;DHT22;19139;49.372;8.580;2023-12-20T13:12:33;18.10;90.50
32787;DHT22;19139;49.372;8.580;2023-12-20T13:15:00;18.10;90.50
32787;DHT22;19139;49.372;8.580;2023-12-20T13:17:26;18.10;90.50
32787;DHT22;19139;49.372;8.580;2023-12-20T13:19:56;18.10;90.50
32787;DHT22;19139;49.372;8.580;2023-12-20T13:22:23;18.10;90.50
32787;DHT22;19139;49.372;8.580;2023-12-20T13:24:50;18.10;90.50
32787;DHT22;19139;49.372;8.580;2023-12-20T13:27:17;18.10;90.50
32787;DHT22;19139;49.372;8.580;2023-12-20T13:29:43;18.10;90.50
32787;DHT22;19139;49.372;8.580;2023-12-20T13:32:10;18.10;90.50
32787;DHT22;19139;49.372;8.580;2023-12-20T13:34:37;18.10;90.50
32787;DHT22;19139;49.372;8.580;2023-12-20T13:37:04;18.10;90.40
32787;DHT22;19139;49.372;8.580;2023-12-20T13:39:31;18.10;90.50
32787;DHT22;19139;49.372;8.580;2023-12-20T13:41:58;18.10;90.50
32787;DHT22;19139;49.372;8.580;2023-12-20T13:44:27;18.10;90.40
32787;DHT22;19139;49.372;8.580;2023-12-20T13:46:53;18.10;90.40
32787;DHT22;19139;49.372;8.580;2023-12-20T13:49:20;18.10;90.40
32787;DHT22;19139;49.372;8.580;2023-12-20T13:51:48;18.10;90.40
32787;DHT22;19139;49.372;8.580;2023-12-20T13:54:14;18.10;90.40
32787;DHT22;19139;49.372;8.580;2023-12-20T13:56:43;18.10;90.40
32787;DHT22;19139;49.372;8.580;2023-12-20T13:59:27;18.10;90.40
32787;DHT22;19139;49.372;8.580;2023-12-20T14:01:54;18.10;90.40
32787;DHT22;19139;49.372;8.580;2023-12-20T14:04:20;18.10;90.40
32787;DHT22;19139;49.372;8.580;2023-12-20T14:07:08;18.10;90.40
32787;DHT22;19139;49.372;8.580;2023-12-20T14:09:36;18.10;90.40
32787;DHT22;19139;49.372;8.580;2023-12-20T14:12:03;18.10;90.40
32787;DHT22;19139;49.372;8.580;2023-12-20T14:14:29;18.10;90.30
32787;DHT22;19139;49.372;8.580;2023-12-20T14:16:56;18.10;90.40
32787;DHT22;19139;49.372;8.580;2023-12-20T14:19:23;18.10;90.30
32787;DHT22;19139;49.372;8.580;2023-12-20T14:21:49;18.10;90.40
32787;DHT22;19139;49.372;8.580;2023-12-20T14:24:16;18.10;90.30
32787;DHT22;19139;49.372;8.580;2023-12-20T14:26:43;18.10;90.30
32787;DHT22;19139;49.372;8.580;2023-12-20T14:29:09;18.10;90.30
32787;DHT22;19139;49.372;8.580;2023-12-20T14:31:36;18.10;90.30
32787;DHT22;19139;49.372;8.580;2023-12-20T14:34:05;18.10;90.30
32787;DHT22;19139;49.372;8.580;2023-12-20T14:36:34;18.10;90.30
32787;DHT22;19139;49.372;8.580;2023-12-20T14:39:00;18.10;90.20
32787;DHT22;19139;49.372;8.580;2023-12-20T14:41:28;18.10;90.30
32787;DHT22;19139;49.372;8.580;2023-12-20T14:43:58;18.10;90.20
32787;DHT22;19139;49.372;8.580;2023-12-20T14:46:26;18.10;90.20
32787;DHT22;19139;49.372;8.580;2023-12-20T14:48:53;18.10;90.20
32787;DHT22;19139;49.372;8.580;2023-12-20T14:51:20;18.10;90.20
32787;DHT22;19139;49.372;8.580;2023-12-20T14:53:46;18.10;90.20
32787;DHT22;19139;49.372;8.580;2023-12-20T14:56:13;18.10;90.20
32787;DHT22;19139;49.372;8.580;2023-12-20T14:58:41;18.10;90.20
32787;DHT22;19139;49.372;8.580;2023-12-20T15:01:08;18.10;90.20
32787;DHT22;19139;49.372;8.580;2023-12-20T15:03:35;18.10;90.20
32787;DHT22;19139;49.372;8.580;2023-12-20T15:06:02;18.10;90.20
32787;DHT22;19139;49.372;8.580;2023-12-20T15:08:29;18.10;90.20
32787;DHT22;19139;49.372;8.580;2023-12-20T15:10:57;18.10;90.20
32787;DHT22;19139;49.372;8.580;2023-12-20T15:13:24;18.10;90.20
32787;DHT22;19139;49.372;8.580;2023-12-20T15:15:51;18.10;90.30
32787;DHT22;19139;49.372;8.580;2023-12-20T15:18:18;18.00;90.10
32787;DHT22;19139;49.372;8.580;2023-12-20T15:20:45;18.00;90.10
32787;DHT22;19139;49.372;8.580;2023-12-20T15:23:12;18.10;90.20
32787;DHT22;19139;49.372;8.580;2023-12-20T15:25:38;18.00;90.10
32787;DHT22;19139;49.372;8.580;2023-12-20T15:28:05;18.00;90.20
32787;DHT22;19139;49.372;8.580;2023-12-20T15:30:33;18.00;90.20
32787;DHT22;19139;49.372;8.580;2023-12-20T15:33:00;18.00;90.10
32787;DHT22;19139;49.372;8.580;2023-12-20T15:35:32;18.00;90.10